Menalon — SXCH — position and weather

sailwx.info

Track history (hours):
 
Tides and Currents Weather Stations Pressure Air Temp Water Temp Dewpoint Dewpoint Depression Visibility Wind Speed Wind Dir Waves Ship Positions

Menalon

Last reported at 2014-Sep-01 10:30 UTC. Time now 2014-Sep-01 19:02 UTC.
Position N 37°55' E 023°05'.

Length 83 m; draft 3.5 m.

Type: Ship (hazmat cat C). MMSI: 239741000.

Date/timePositionNaut miles runAvg speedWind from/ knotsBaromVisibWave heightAir tempDewpointWater temp
2014-Sep-01 10:30N 37°55' E 023°05'1 0.8
2014-Sep-01 09:27N 37°55' E 023°04'0 0.0
2014-Sep-01 08:09N 37°55' E 023°04'0 0.0
2014-Sep-01 06:32N 37°55' E 023°04'17 8.7
2014-Sep-01 04:33N 37°50' E 023°26'1111.0
2014-Sep-01 03:33N 37°46' E 023°39'  
2014-Aug-29 21:21N 37°35' E 023°42'810.2
2014-Aug-29 20:33N 37°43' E 023°39'10 9.7
2014-Aug-29 19:33N 37°50' E 023°31'21 8.6
2014-Aug-29 17:09N 37°55' E 023°05'0 0.0
2014-Aug-29 16:30N 37°55' E 023°05'0 0.0
2014-Aug-29 15:16N 37°55' E 023°05'0 0.0
2014-Aug-29 14:33N 37°55' E 023°05'0 0.0
2014-Aug-29 13:30N 37°55' E 023°05'0 0.0
2014-Aug-29 11:22N 37°55' E 023°05'0 0.0
2014-Aug-29 10:32N 37°55' E 023°05'12 3.6
2014-Aug-29 07:08N 37°53' E 023°21'610.6
2014-Aug-29 06:33N 37°52' E 023°28'7 7.2
2014-Aug-29 05:33N 37°57' E 023°34'0 0.0
2014-Aug-29 04:33N 37°57' E 023°34'0 0.0
2014-Aug-29 03:33N 37°57' E 023°34'0 0.0
2014-Aug-29 02:33N 37°57' E 023°34'0 0.0
2014-Aug-29 01:33N 37°57' E 023°34'0 0.0
2014-Aug-29 00:33N 37°57' E 023°34'0 0.0
2014-Aug-28 23:33N 37°57' E 023°34'0 0.0
2014-Aug-28 22:33N 37°57' E 023°34'0 0.0
2014-Aug-28 21:33N 37°57' E 023°34'0 0.0
2014-Aug-28 20:33N 37°57' E 023°34'0 0.0
2014-Aug-28 19:33N 37°57' E 023°34'0 0.0
2014-Aug-28 18:33N 37°57' E 023°34'0 0.0
2014-Aug-28 17:33N 37°57' E 023°34'0 0.1
2014-Aug-28 16:33N 37°57' E 023°34'0 0.0
2014-Aug-28 15:33N 37°57' E 023°34'0 0.0
2014-Aug-28 14:33N 37°57' E 023°34'0 0.0
2014-Aug-28 13:33N 37°57' E 023°34'0 0.0
2014-Aug-28 12:33N 37°57' E 023°34'0 0.0
2014-Aug-28 11:33N 37°57' E 023°34'0 0.0
2014-Aug-28 10:33N 37°57' E 023°34'0 0.0
2014-Aug-28 09:33N 37°57' E 023°34'0 0.0
2014-Aug-28 08:33N 37°57' E 023°34'0 0.0
2014-Aug-28 07:33N 37°57' E 023°34'0 0.1
2014-Aug-28 06:33N 37°57' E 023°34'0 0.0
2014-Aug-28 05:33N 37°57' E 023°34'0 0.0
2014-Aug-28 04:33N 37°57' E 023°34'0 0.0
2014-Aug-28 03:33N 37°57' E 023°34'0 0.0
2014-Aug-28 02:33N 37°57' E 023°34'0 0.0
2014-Aug-28 01:33N 37°57' E 023°34'0 0.4
2014-Aug-28 00:33N 37°57' E 023°35'0 0.3
2014-Aug-27 23:34N 37°57' E 023°35'0 0.0
2014-Aug-27 22:33N 37°57' E 023°35'0 0.0
2014-Aug-27 21:33N 37°57' E 023°35'0 0.0
2014-Aug-27 20:33N 37°57' E 023°35'0 0.0
2014-Aug-27 19:33N 37°57' E 023°35'0 0.2
2014-Aug-27 18:33N 37°57' E 023°35'6 6.1
2014-Aug-27 17:33N 37°52' E 023°31'0 0.0
2014-Aug-27 16:33N 37°52' E 023°31'0 0.0
2014-Aug-27 15:33N 37°52' E 023°31'0 0.0
2014-Aug-27 14:33N 37°52' E 023°31'3 2.5
2014-Aug-27 13:33N 37°53' E 023°33'0 0.2
2014-Aug-27 12:33N 37°53' E 023°34'0 0.1
2014-Aug-27 11:33N 37°53' E 023°34'5 4.8
2014-Aug-27 10:33N 37°58' E 023°36'0 0.0
2014-Aug-27 09:33N 37°58' E 023°36'0 0.0
2014-Aug-27 08:33N 37°58' E 023°36'0 0.0
2014-Aug-27 07:33N 37°58' E 023°36'5 4.9
2014-Aug-27 06:33N 37°53' E 023°34'0 0.0
2014-Aug-27 05:33N 37°53' E 023°34'0 0.1
2014-Aug-27 04:33N 37°53' E 023°34'0 0.0
2014-Aug-27 03:33N 37°53' E 023°33'0 0.0
2014-Aug-27 02:33N 37°53' E 023°34'1 1.3
2014-Aug-27 01:33N 37°53' E 023°35'0 0.2
2014-Aug-27 00:33N 37°53' E 023°35'4 4.1
2014-Aug-26 23:33N 37°57' E 023°36'0 0.1
2014-Aug-26 22:33N 37°57' E 023°36'1 1.0
2014-Aug-26 21:33N 37°57' E 023°35'10 9.6
2014-Aug-26 20:33N 37°52' E 023°24'1310.8
2014-Aug-26 19:21N 37°54' E 023°08'2 2.5
2014-Aug-26 18:26N 37°55' E 023°05'0 0.0
2014-Aug-26 17:30N 37°55' E 023°05'0 0.0
2014-Aug-26 16:30N 37°55' E 023°05'0 0.0
2014-Aug-26 15:28N 37°55' E 023°05'0 0.0
2014-Aug-26 14:31N 37°55' E 023°05'0 0.0
2014-Aug-26 13:16N 37°55' E 023°05'0 0.0
2014-Aug-26 12:25N 37°55' E 023°05'0 0.0
2014-Aug-26 11:24N 37°55' E 023°05'0 0.0
2014-Aug-26 10:33N 37°55' E 023°05'0 0.0
2014-Aug-26 09:09N 37°55' E 023°05'0 0.0
2014-Aug-26 08:30N 37°55' E 023°05'15 0.8
2014-Aug-25 12:33N 37°52' E 023°24'6 5.9
2014-Aug-25 11:33N 37°54' E 023°32'0 0.0
2014-Aug-25 10:33N 37°54' E 023°32'0 0.0
2014-Aug-25 09:33N 37°54' E 023°32'1 1.1
2014-Aug-25 08:33N 37°54' E 023°33'4 1.2
2014-Aug-25 05:29N 37°57' E 023°36'1 1.3
2014-Aug-25 04:33N 37°57' E 023°34'0 0.0
2014-Aug-25 03:32N 37°57' E 023°34'0 0.0
2014-Aug-25 02:33N 37°57' E 023°34'0 0.0
2014-Aug-25 01:33N 37°57' E 023°34'0 0.0
2014-Aug-25 00:33N 37°57' E 023°34'0 0.0
2014-Aug-24 23:33N 37°57' E 023°34'0 0.0
2014-Aug-24 22:32N 37°57' E 023°34'0 0.0
2014-Aug-24 21:33N 37°57' E 023°34'0 0.0
2014-Aug-24 20:33N 37°57' E 023°34'0 0.0
2014-Aug-24 19:33N 37°57' E 023°34'0 0.1
2014-Aug-24 18:33N 37°57' E 023°34'0 0.0
2014-Aug-24 17:33N 37°57' E 023°34'1 1.3
2014-Aug-24 16:33N 37°57' E 023°36'0 0.0
2014-Aug-24 15:33N 37°57' E 023°36'0 0.0
2014-Aug-24 14:33N 37°57' E 023°36'0 0.0
2014-Aug-24 13:33N 37°57' E 023°36'1 1.1
2014-Aug-24 12:33N 37°57' E 023°34'0 0.1
2014-Aug-24 11:33N 37°57' E 023°34'0 0.1
2014-Aug-24 10:33N 37°57' E 023°34'0 0.0
2014-Aug-24 09:33N 37°57' E 023°34'0 0.0
2014-Aug-24 08:33N 37°57' E 023°34'0 0.1
2014-Aug-24 07:33N 37°57' E 023°34'0 0.0
2014-Aug-24 06:33N 37°57' E 023°34'0 0.0
2014-Aug-24 05:33N 37°57' E 023°34'0 0.0
2014-Aug-24 04:33N 37°57' E 023°34'0 0.0
2014-Aug-24 03:33N 37°57' E 023°34'0 0.0
2014-Aug-24 02:33N 37°57' E 023°34'0 0.0
2014-Aug-24 01:33N 37°57' E 023°34'0 0.0
2014-Aug-24 00:33N 37°57' E 023°34'1 1.1
2014-Aug-23 23:33N 37°57' E 023°36'0 0.0
2014-Aug-23 22:33N 37°57' E 023°36'0 0.0
2014-Aug-23 21:33N 37°57' E 023°36'1 0.8
2014-Aug-23 20:33N 37°57' E 023°35'0 0.0
2014-Aug-23 19:33N 37°57' E 023°35'0 0.0
2014-Aug-23 03:33N 37°57' E 023°35'0 0.1
2014-Aug-23 02:33N 37°57' E 023°35'0 0.0
2014-Aug-23 01:33N 37°57' E 023°35'0 0.0
2014-Aug-23 00:33N 37°57' E 023°35'0 0.0
2014-Aug-22 23:33N 37°57' E 023°35'0 0.1
2014-Aug-22 22:33N 37°57' E 023°35'0 0.1
2014-Aug-22 21:33N 37°57' E 023°35'0 0.0
2014-Aug-22 20:33N 37°57' E 023°35'0 0.0
2014-Aug-22 19:33N 37°57' E 023°35'1 1.5
2014-Aug-22 18:33N 37°56' E 023°34'2 2.1
2014-Aug-22 17:33N 37°54' E 023°33'0 0.0
2014-Aug-22 16:33N 37°54' E 023°33'0 0.0
2014-Aug-22 15:33N 37°54' E 023°33'3 3.4
2014-Aug-22 14:33N 37°57' E 023°34'0 0.0
2014-Aug-22 13:33N 37°57' E 023°34'0 0.0
2014-Aug-22 12:33N 37°57' E 023°34'0 0.0
2014-Aug-22 11:33N 37°57' E 023°34'0 0.0
2014-Aug-22 10:33N 37°57' E 023°34'  
Track history (hours):
 
Tides and Currents Weather Stations Pressure Air Temp Water Temp Dewpoint Dewpoint Depression Visibility Wind Speed Wind Dir Waves Ship Positions

Menalon

Last reported at 2014-Sep-01 10:30 UTC. Time now 2014-Sep-01 19:02 UTC.
Position N 37°55' E 023°05'.

Length 83 m; draft 3.5 m.

Type: Ship (hazmat cat C). MMSI: 239741000.

Date/timePositionNaut miles runAvg speedWind from/ knotsBaromVisibWave heightAir tempDewpointWater temp
2014-Sep-01 10:30N 37°55' E 023°05'1 0.8
2014-Sep-01 09:27N 37°55' E 023°04'0 0.0
2014-Sep-01 08:09N 37°55' E 023°04'0 0.0
2014-Sep-01 06:32N 37°55' E 023°04'17 8.7
2014-Sep-01 04:33N 37°50' E 023°26'1111.0
2014-Sep-01 03:33N 37°46' E 023°39'  
2014-Aug-29 21:21N 37°35' E 023°42'810.2
2014-Aug-29 20:33N 37°43' E 023°39'10 9.7
2014-Aug-29 19:33N 37°50' E 023°31'21 8.6
2014-Aug-29 17:09N 37°55' E 023°05'0 0.0
2014-Aug-29 16:30N 37°55' E 023°05'0 0.0
2014-Aug-29 15:16N 37°55' E 023°05'0 0.0
2014-Aug-29 14:33N 37°55' E 023°05'0 0.0
2014-Aug-29 13:30N 37°55' E 023°05'0 0.0
2014-Aug-29 11:22N 37°55' E 023°05'0 0.0
2014-Aug-29 10:32N 37°55' E 023°05'12 3.6
2014-Aug-29 07:08N 37°53' E 023°21'610.6
2014-Aug-29 06:33N 37°52' E 023°28'7 7.2
2014-Aug-29 05:33N 37°57' E 023°34'0 0.0
2014-Aug-29 04:33N 37°57' E 023°34'0 0.0
2014-Aug-29 03:33N 37°57' E 023°34'0 0.0
2014-Aug-29 02:33N 37°57' E 023°34'0 0.0
2014-Aug-29 01:33N 37°57' E 023°34'0 0.0
2014-Aug-29 00:33N 37°57' E 023°34'0 0.0
2014-Aug-28 23:33N 37°57' E 023°34'0 0.0
2014-Aug-28 22:33N 37°57' E 023°34'0 0.0
2014-Aug-28 21:33N 37°57' E 023°34'0 0.0
2014-Aug-28 20:33N 37°57' E 023°34'0 0.0
2014-Aug-28 19:33N 37°57' E 023°34'0 0.0
2014-Aug-28 18:33N 37°57' E 023°34'0 0.0
2014-Aug-28 17:33N 37°57' E 023°34'0 0.1
2014-Aug-28 16:33N 37°57' E 023°34'0 0.0
2014-Aug-28 15:33N 37°57' E 023°34'0 0.0
2014-Aug-28 14:33N 37°57' E 023°34'0 0.0
2014-Aug-28 13:33N 37°57' E 023°34'0 0.0
2014-Aug-28 12:33N 37°57' E 023°34'0 0.0
2014-Aug-28 11:33N 37°57' E 023°34'0 0.0
2014-Aug-28 10:33N 37°57' E 023°34'0 0.0
2014-Aug-28 09:33N 37°57' E 023°34'0 0.0
2014-Aug-28 08:33N 37°57' E 023°34'0 0.0
2014-Aug-28 07:33N 37°57' E 023°34'0 0.1
2014-Aug-28 06:33N 37°57' E 023°34'0 0.0
2014-Aug-28 05:33N 37°57' E 023°34'0 0.0
2014-Aug-28 04:33N 37°57' E 023°34'0 0.0
2014-Aug-28 03:33N 37°57' E 023°34'0 0.0
2014-Aug-28 02:33N 37°57' E 023°34'0 0.0
2014-Aug-28 01:33N 37°57' E 023°34'0 0.4
2014-Aug-28 00:33N 37°57' E 023°35'0 0.3
2014-Aug-27 23:34N 37°57' E 023°35'0 0.0
2014-Aug-27 22:33N 37°57' E 023°35'0 0.0
2014-Aug-27 21:33N 37°57' E 023°35'0 0.0
2014-Aug-27 20:33N 37°57' E 023°35'0 0.0
2014-Aug-27 19:33N 37°57' E 023°35'0 0.2
2014-Aug-27 18:33N 37°57' E 023°35'6 6.1
2014-Aug-27 17:33N 37°52' E 023°31'0 0.0
2014-Aug-27 16:33N 37°52' E 023°31'0 0.0
2014-Aug-27 15:33N 37°52' E 023°31'0 0.0
2014-Aug-27 14:33N 37°52' E 023°31'3 2.5
2014-Aug-27 13:33N 37°53' E 023°33'0 0.2
2014-Aug-27 12:33N 37°53' E 023°34'0 0.1
2014-Aug-27 11:33N 37°53' E 023°34'5 4.8
2014-Aug-27 10:33N 37°58' E 023°36'0 0.0
2014-Aug-27 09:33N 37°58' E 023°36'0 0.0
2014-Aug-27 08:33N 37°58' E 023°36'0 0.0
2014-Aug-27 07:33N 37°58' E 023°36'5 4.9
2014-Aug-27 06:33N 37°53' E 023°34'0 0.0
2014-Aug-27 05:33N 37°53' E 023°34'0 0.1
2014-Aug-27 04:33N 37°53' E 023°34'0 0.0
2014-Aug-27 03:33N 37°53' E 023°33'0 0.0
2014-Aug-27 02:33N 37°53' E 023°34'1 1.3
2014-Aug-27 01:33N 37°53' E 023°35'0 0.2
2014-Aug-27 00:33N 37°53' E 023°35'4 4.1
2014-Aug-26 23:33N 37°57' E 023°36'0 0.1
2014-Aug-26 22:33N 37°57' E 023°36'1 1.0
2014-Aug-26 21:33N 37°57' E 023°35'10 9.6
2014-Aug-26 20:33N 37°52' E 023°24'1310.8
2014-Aug-26 19:21N 37°54' E 023°08'2 2.5
2014-Aug-26 18:26N 37°55' E 023°05'0 0.0
2014-Aug-26 17:30N 37°55' E 023°05'0 0.0
2014-Aug-26 16:30N 37°55' E 023°05'0 0.0
2014-Aug-26 15:28N 37°55' E 023°05'0 0.0
2014-Aug-26 14:31N 37°55' E 023°05'0 0.0
2014-Aug-26 13:16N 37°55' E 023°05'0 0.0
2014-Aug-26 12:25N 37°55' E 023°05'0 0.0
2014-Aug-26 11:24N 37°55' E 023°05'0 0.0
2014-Aug-26 10:33N 37°55' E 023°05'0 0.0
2014-Aug-26 09:09N 37°55' E 023°05'0 0.0
2014-Aug-26 08:30N 37°55' E 023°05'15 0.8
2014-Aug-25 12:33N 37°52' E 023°24'6 5.9
2014-Aug-25 11:33N 37°54' E 023°32'0 0.0
2014-Aug-25 10:33N 37°54' E 023°32'0 0.0
2014-Aug-25 09:33N 37°54' E 023°32'1 1.1
2014-Aug-25 08:33N 37°54' E 023°33'4 1.2
2014-Aug-25 05:29N 37°57' E 023°36'1 1.3
2014-Aug-25 04:33N 37°57' E 023°34'0 0.0
2014-Aug-25 03:32N 37°57' E 023°34'0 0.0
2014-Aug-25 02:33N 37°57' E 023°34'0 0.0
2014-Aug-25 01:33N 37°57' E 023°34'0 0.0
2014-Aug-25 00:33N 37°57' E 023°34'0 0.0
2014-Aug-24 23:33N 37°57' E 023°34'0 0.0
2014-Aug-24 22:32N 37°57' E 023°34'0 0.0
2014-Aug-24 21:33N 37°57' E 023°34'0 0.0
2014-Aug-24 20:33N 37°57' E 023°34'0 0.0
2014-Aug-24 19:33N 37°57' E 023°34'0 0.1
2014-Aug-24 18:33N 37°57' E 023°34'0 0.0
2014-Aug-24 17:33N 37°57' E 023°34'1 1.3
2014-Aug-24 16:33N 37°57' E 023°36'0 0.0
2014-Aug-24 15:33N 37°57' E 023°36'0 0.0
2014-Aug-24 14:33N 37°57' E 023°36'0 0.0
2014-Aug-24 13:33N 37°57' E 023°36'1 1.1
2014-Aug-24 12:33N 37°57' E 023°34'0 0.1
2014-Aug-24 11:33N 37°57' E 023°34'0 0.1
2014-Aug-24 10:33N 37°57' E 023°34'0 0.0
2014-Aug-24 09:33N 37°57' E 023°34'0 0.0
2014-Aug-24 08:33N 37°57' E 023°34'0 0.1
2014-Aug-24 07:33N 37°57' E 023°34'0 0.0
2014-Aug-24 06:33N 37°57' E 023°34'0 0.0
2014-Aug-24 05:33N 37°57' E 023°34'0 0.0
2014-Aug-24 04:33N 37°57' E 023°34'0 0.0
2014-Aug-24 03:33N 37°57' E 023°34'0 0.0
2014-Aug-24 02:33N 37°57' E 023°34'0 0.0
2014-Aug-24 01:33N 37°57' E 023°34'0 0.0
2014-Aug-24 00:33N 37°57' E 023°34'1 1.1
2014-Aug-23 23:33N 37°57' E 023°36'0 0.0
2014-Aug-23 22:33N 37°57' E 023°36'0 0.0
2014-Aug-23 21:33N 37°57' E 023°36'1 0.8
2014-Aug-23 20:33N 37°57' E 023°35'0 0.0
2014-Aug-23 19:33N 37°57' E 023°35'0 0.0
2014-Aug-23 03:33N 37°57' E 023°35'0 0.1
2014-Aug-23 02:33N 37°57' E 023°35'0 0.0
2014-Aug-23 01:33N 37°57' E 023°35'0 0.0
2014-Aug-23 00:33N 37°57' E 023°35'0 0.0
2014-Aug-22 23:33N 37°57' E 023°35'0 0.1
2014-Aug-22 22:33N 37°57' E 023°35'0 0.1
2014-Aug-22 21:33N 37°57' E 023°35'0 0.0
2014-Aug-22 20:33N 37°57' E 023°35'0 0.0
2014-Aug-22 19:33N 37°57' E 023°35'1 1.5
2014-Aug-22 18:33N 37°56' E 023°34'2 2.1
2014-Aug-22 17:33N 37°54' E 023°33'0 0.0
2014-Aug-22 16:33N 37°54' E 023°33'0 0.0
2014-Aug-22 15:33N 37°54' E 023°33'3 3.4
2014-Aug-22 14:33N 37°57' E 023°34'0 0.0
2014-Aug-22 13:33N 37°57' E 023°34'0 0.0
2014-Aug-22 12:33N 37°57' E 023°34'0 0.0
2014-Aug-22 11:33N 37°57' E 023°34'0 0.0
2014-Aug-22 10:33N 37°57' E 023°34'  

Dump ship's entire track history